createdAt,value
2023-02-23T00:01:53.636Z,7.64
2023-02-23T00:04:20.435Z,7.57
2023-02-23T00:06:48.169Z,7.52
2023-02-23T00:09:24.958Z,7.48
2023-02-23T00:11:58.047Z,7.51
2023-02-23T00:14:27.588Z,7.53
2023-02-23T00:16:57.906Z,7.55
2023-02-23T00:19:25.329Z,7.45
2023-02-23T00:21:53.067Z,7.42
2023-02-23T00:24:20.653Z,7.36
2023-02-23T00:26:48.213Z,7.41
2023-02-23T00:29:17.516Z,7.40
2023-02-23T00:31:45.935Z,7.37
2023-02-23T00:34:14.524Z,7.37
2023-02-23T00:36:41.849Z,7.34
2023-02-23T00:39:21.613Z,7.36
2023-02-23T00:41:52.737Z,7.30
2023-02-23T00:44:21.140Z,7.26
2023-02-23T00:46:52.237Z,6.98
2023-02-23T00:49:20.909Z,7.13
2023-02-23T00:51:48.259Z,7.14
2023-02-23T00:54:19.771Z,7.07
2023-02-23T00:56:47.263Z,7.01
2023-02-23T00:59:15.006Z,7.07
2023-02-23T01:01:42.490Z,7.10
2023-02-23T01:04:10.239Z,7.07
2023-02-23T01:06:37.984Z,7.04
2023-02-23T01:09:14.038Z,6.97
2023-02-23T01:11:41.798Z,6.93
2023-02-23T01:14:08.750Z,6.89
2023-02-23T01:16:35.641Z,6.87
2023-02-23T01:19:04.758Z,6.76
2023-02-23T01:21:37.651Z,6.74
2023-02-23T01:24:04.992Z,6.92
2023-02-23T01:26:36.595Z,6.93
2023-02-23T01:29:09.496Z,6.95
2023-02-23T01:31:38.024Z,6.90
2023-02-23T01:34:06.281Z,6.89
2023-02-23T01:36:36.463Z,7.01
2023-02-23T01:39:07.791Z,6.86
2023-02-23T01:41:36.904Z,6.92
2023-02-23T01:44:50.811Z,6.83
2023-02-23T01:47:20.712Z,6.84
2023-02-23T01:49:48.310Z,6.81
2023-02-23T01:52:17.404Z,6.85
2023-02-23T01:54:52.346Z,6.80
2023-02-23T01:57:19.627Z,6.77
2023-02-23T01:59:49.226Z,6.87
2023-02-23T02:02:21.958Z,6.93
2023-02-23T02:04:52.449Z,6.85
2023-02-23T02:07:26.025Z,6.87
2023-02-23T02:10:33.562Z,6.84
2023-02-23T02:13:00.358Z,6.68
2023-02-23T02:15:32.592Z,6.69
2023-02-23T02:18:30.936Z,6.62
2023-02-23T02:21:05.499Z,6.67
2023-02-23T02:24:11.510Z,6.67
2023-02-23T02:26:56.548Z,6.68
2023-02-23T02:30:09.832Z,6.65
2023-02-23T02:32:56.088Z,6.57
2023-02-23T02:35:48.721Z,6.65
2023-02-23T02:38:22.581Z,6.55
2023-02-23T02:41:04.460Z,6.56
2023-02-23T02:43:52.602Z,6.61
2023-02-23T02:46:38.396Z,6.70
2023-02-23T02:49:09.097Z,6.75
2023-02-23T02:51:45.179Z,6.70
2023-02-23T02:54:34.320Z,6.68
2023-02-23T02:57:05.827Z,6.66
2023-02-23T03:00:01.874Z,6.61
2023-02-23T03:02:47.523Z,6.77
2023-02-23T03:05:35.028Z,6.82
2023-02-23T03:08:52.201Z,6.72
2023-02-23T03:11:37.979Z,6.83
2023-02-23T03:14:42.218Z,6.78
2023-02-23T03:17:53.092Z,6.74
2023-02-23T03:21:05.935Z,6.76
2023-02-23T03:24:22.106Z,6.77
2023-02-23T03:27:39.914Z,6.70
2023-02-23T03:30:39.761Z,6.81
2023-02-23T03:33:31.870Z,6.80
2023-02-23T03:36:22.963Z,6.77
2023-02-23T03:39:43.509Z,6.76
2023-02-23T03:42:33.898Z,6.73
2023-02-23T03:45:23.949Z,6.86
2023-02-23T03:48:09.881Z,6.81
2023-02-23T03:51:00.751Z,6.78
2023-02-23T03:53:52.700Z,6.82
2023-02-23T03:56:40.207Z,6.85
2023-02-23T03:59:26.988Z,6.88
2023-02-23T04:02:13.842Z,6.90
2023-02-23T04:05:00.086Z,6.95
2023-02-23T04:07:45.436Z,6.94
2023-02-23T04:10:31.068Z,6.87
2023-02-23T04:13:16.550Z,6.82
2023-02-23T04:15:52.920Z,6.73
2023-02-23T04:18:26.033Z,6.78
2023-02-23T04:20:53.227Z,6.93
2023-02-23T04:23:20.016Z,6.97
2023-02-23T04:25:48.041Z,6.96
2023-02-23T04:28:14.879Z,6.71
2023-02-23T04:30:42.100Z,6.77
2023-02-23T04:33:09.046Z,6.62
2023-02-23T04:35:36.221Z,6.82
2023-02-23T04:38:03.039Z,6.86
2023-02-23T04:40:30.266Z,6.89
2023-02-23T04:42:57.540Z,7.00
2023-02-23T04:45:24.888Z,6.98
2023-02-23T04:47:51.633Z,6.97
2023-02-23T04:50:18.893Z,7.00
2023-02-23T04:52:45.542Z,6.94
2023-02-23T04:55:20.501Z,7.04
2023-02-23T04:57:47.461Z,7.04
2023-02-23T05:00:15.542Z,7.04
2023-02-23T05:02:42.120Z,7.03
2023-02-23T05:05:09.610Z,7.15
2023-02-23T05:07:36.979Z,7.13
2023-02-23T05:10:05.424Z,7.11
2023-02-23T05:12:32.508Z,7.17
2023-02-23T05:14:59.513Z,7.13
2023-02-23T05:17:26.397Z,7.18
2023-02-23T05:19:53.837Z,7.13
2023-02-23T05:22:20.574Z,7.11
2023-02-23T05:24:47.887Z,7.22
2023-02-23T05:27:15.661Z,7.32
2023-02-23T05:29:42.567Z,7.29
2023-02-23T05:32:09.376Z,7.12
2023-02-23T05:34:36.906Z,7.08
2023-02-23T05:37:03.998Z,7.12
2023-02-23T05:39:31.303Z,7.04
2023-02-23T05:41:57.895Z,7.09
2023-02-23T05:44:25.430Z,6.96
2023-02-23T05:46:53.647Z,7.06
2023-02-23T05:49:20.505Z,7.17
2023-02-23T05:51:47.357Z,7.25
2023-02-23T05:54:14.301Z,7.33
2023-02-23T05:56:42.588Z,7.27
2023-02-23T05:59:10.205Z,7.26
2023-02-23T06:01:36.844Z,7.27
2023-02-23T06:04:05.279Z,7.29
2023-02-23T06:06:32.810Z,7.32
2023-02-23T06:08:59.515Z,7.35
2023-02-23T06:11:26.159Z,7.30
2023-02-23T06:13:52.833Z,7.25
2023-02-23T06:16:19.762Z,7.34
2023-02-23T06:18:46.895Z,7.23
2023-02-23T06:21:13.963Z,7.28
2023-02-23T06:23:40.945Z,7.29
2023-02-23T06:26:08.544Z,7.35
2023-02-23T06:28:35.653Z,7.41
2023-02-23T06:31:02.366Z,7.42
2023-02-23T06:33:29.319Z,7.44
2023-02-23T06:35:56.218Z,7.36
2023-02-23T06:38:24.127Z,7.38
2023-02-23T06:40:50.857Z,7.42
2023-02-23T06:43:17.582Z,7.44
2023-02-23T06:45:44.349Z,7.52
2023-02-23T06:48:11.108Z,7.51
2023-02-23T06:50:37.880Z,7.53
2023-02-23T06:53:05.210Z,7.52
2023-02-23T06:55:32.825Z,7.51
2023-02-23T06:57:59.607Z,7.44
2023-02-23T07:00:26.477Z,7.37
2023-02-23T07:02:53.207Z,7.37
2023-02-23T07:05:19.897Z,7.54
2023-02-23T07:07:46.741Z,7.50
2023-02-23T07:10:13.591Z,7.49
2023-02-23T07:12:40.266Z,7.47
2023-02-23T07:15:07.902Z,7.57
2023-02-23T07:17:34.686Z,7.63
2023-02-23T07:20:01.387Z,7.52
2023-02-23T07:22:30.568Z,7.58
2023-02-23T07:24:57.768Z,7.57
2023-02-23T07:27:24.525Z,7.74
2023-02-23T07:29:51.255Z,7.74
2023-02-23T07:32:17.955Z,7.72
2023-02-23T07:34:46.120Z,7.88
2023-02-23T07:37:12.731Z,7.98
2023-02-23T07:39:39.401Z,7.94
2023-02-23T07:42:06.103Z,7.89
2023-02-23T07:44:32.671Z,8.05
2023-02-23T07:46:59.292Z,8.07
2023-02-23T07:49:26.076Z,7.88
2023-02-23T07:51:52.918Z,7.97
2023-02-23T07:54:19.556Z,7.98
2023-02-23T07:56:46.546Z,8.00
2023-02-23T07:59:14.566Z,7.97
2023-02-23T08:01:41.239Z,7.98
2023-02-23T08:04:07.983Z,7.89
2023-02-23T08:06:34.706Z,7.92
2023-02-23T08:09:02.842Z,8.06
2023-02-23T08:11:29.679Z,8.08
2023-02-23T08:14:00.327Z,8.17
2023-02-23T08:16:32.497Z,8.16
2023-02-23T08:19:00.683Z,8.19
2023-02-23T08:21:29.369Z,8.23
2023-02-23T08:23:57.141Z,8.28
2023-02-23T08:26:25.638Z,8.31
2023-02-23T08:28:53.565Z,8.34
2023-02-23T08:31:24.262Z,8.46
2023-02-23T08:33:51.467Z,8.46
2023-02-23T08:36:18.509Z,8.48
2023-02-23T08:38:45.126Z,8.44
2023-02-23T08:41:11.769Z,8.46
2023-02-23T08:43:39.453Z,8.48
2023-02-23T08:46:07.294Z,8.51
2023-02-23T08:48:34.575Z,8.54
2023-02-23T08:51:01.651Z,8.57
2023-02-23T08:53:29.949Z,8.58
2023-02-23T08:56:01.549Z,8.61
2023-02-23T08:58:30.696Z,8.51
2023-02-23T09:00:58.628Z,8.59
2023-02-23T09:03:30.462Z,8.64
2023-02-23T09:05:59.149Z,8.66
2023-02-23T09:08:25.815Z,8.70
2023-02-23T09:10:53.649Z,8.72
2023-02-23T09:13:20.234Z,8.76
2023-02-23T09:15:48.062Z,8.79
2023-02-23T09:18:15.075Z,8.81
2023-02-23T09:20:43.196Z,8.78
2023-02-23T09:23:11.061Z,8.83
2023-02-23T09:25:44.440Z,8.88
2023-02-23T09:28:15.626Z,8.84
2023-02-23T09:30:43.651Z,8.87
2023-02-23T09:33:10.634Z,8.82
2023-02-23T09:35:37.639Z,8.89
2023-02-23T09:38:06.706Z,8.97
2023-02-23T09:40:46.371Z,8.97
2023-02-23T09:43:18.996Z,9.19
2023-02-23T09:45:52.880Z,9.17
2023-02-23T09:48:22.343Z,9.13
2023-02-23T09:50:58.659Z,9.21
2023-02-23T09:53:31.588Z,9.26
2023-02-23T09:56:00.208Z,9.32
2023-02-23T09:58:32.186Z,9.32
2023-02-23T10:01:18.387Z,9.37
2023-02-23T10:03:57.702Z,9.46
2023-02-23T10:06:24.354Z,9.45
2023-02-23T10:09:29.400Z,9.42
2023-02-23T10:12:24.804Z,9.54
2023-02-23T10:15:06.867Z,9.57
2023-02-23T10:17:50.741Z,9.62
2023-02-23T10:20:32.782Z,9.71
2023-02-23T10:23:04.113Z,9.75
2023-02-23T10:25:35.714Z,9.76
2023-02-23T10:28:03.013Z,9.78
2023-02-23T10:30:32.227Z,9.87
2023-02-23T10:33:06.084Z,9.88
2023-02-23T10:35:33.950Z,10.00
2023-02-23T10:38:01.330Z,10.04
2023-02-23T10:40:31.347Z,10.17
2023-02-23T10:42:59.889Z,10.27
2023-02-23T10:45:28.540Z,10.32
2023-02-23T10:48:05.009Z,10.40
2023-02-23T10:54:39.263Z,10.57
2023-02-23T10:57:07.429Z,10.61
2023-02-23T10:59:34.878Z,10.67
2023-02-23T11:02:23.065Z,10.80
2023-02-23T11:04:54.931Z,10.84
2023-02-23T11:07:25.414Z,10.95
2023-02-23T11:09:53.153Z,11.04
2023-02-23T11:12:43.442Z,11.17
2023-02-23T11:15:35.345Z,11.10
2023-02-23T11:18:19.666Z,11.19
2023-02-23T11:20:46.330Z,11.25
2023-02-23T11:23:21.459Z,11.25
2023-02-23T11:25:49.588Z,11.34
2023-02-23T11:28:24.574Z,11.38
2023-02-23T11:30:51.880Z,11.45
2023-02-23T11:33:22.317Z,11.51
2023-02-23T11:35:48.924Z,11.62
2023-02-23T11:38:25.879Z,11.66
2023-02-23T11:41:05.307Z,11.64
2023-02-23T11:43:31.924Z,11.62
2023-02-23T11:46:00.387Z,11.63
2023-02-23T11:48:44.641Z,11.67
2023-02-23T11:51:11.469Z,11.72
2023-02-23T11:53:40.810Z,11.74
2023-02-23T11:56:13.890Z,11.77
2023-02-23T11:58:43.899Z,11.88
2023-02-23T12:01:23.758Z,11.80
2023-02-23T12:03:56.417Z,11.80
2023-02-23T12:06:30.698Z,11.80
2023-02-23T12:09:02.858Z,11.96
2023-02-23T12:11:34.372Z,12.04
2023-02-23T12:14:21.008Z,12.03
2023-02-23T12:16:51.148Z,12.02
2023-02-23T12:19:23.269Z,12.10
2023-02-23T12:22:02.695Z,12.00
2023-02-23T12:24:45.745Z,12.00
2023-02-23T12:27:26.553Z,11.93
2023-02-23T12:30:12.133Z,11.91
2023-02-23T12:32:56.317Z,11.68
2023-02-23T12:35:30.748Z,11.75
2023-02-23T12:38:09.122Z,11.96
2023-02-23T12:40:38.704Z,11.90
2023-02-23T12:43:12.841Z,11.83
2023-02-23T12:45:46.758Z,11.82
2023-02-23T12:48:20.274Z,11.83
2023-02-23T12:50:53.142Z,11.75
2023-02-23T12:53:28.808Z,11.82
2023-02-23T12:56:04.533Z,11.74
2023-02-23T12:59:00.612Z,11.74
2023-02-23T13:01:37.785Z,11.80
2023-02-23T13:04:42.125Z,11.71
2023-02-23T13:07:59.196Z,11.77
2023-02-23T13:11:10.099Z,11.84
2023-02-23T13:13:41.675Z,11.76
2023-02-23T13:16:24.373Z,11.78
2023-02-23T13:19:05.096Z,11.85
2023-02-23T13:21:55.000Z,11.84
2023-02-23T13:24:27.047Z,11.94
2023-02-23T13:27:03.740Z,11.96
2023-02-23T13:29:41.333Z,11.93
2023-02-23T13:32:18.002Z,12.02
2023-02-23T13:34:52.688Z,12.03
2023-02-23T13:37:32.435Z,12.09
2023-02-23T13:40:37.453Z,12.00
2023-02-23T13:43:17.762Z,12.12
2023-02-23T13:46:25.552Z,12.16
2023-02-23T13:48:59.306Z,12.22
2023-02-23T13:51:46.191Z,12.25
2023-02-23T13:54:12.776Z,12.16
2023-02-23T13:56:44.570Z,12.12
2023-02-23T13:59:18.167Z,12.26
2023-02-23T14:01:47.774Z,12.20
2023-02-23T14:04:22.614Z,12.22
2023-02-23T14:07:03.215Z,12.18
2023-02-23T14:09:37.693Z,12.14
2023-02-23T14:12:35.411Z,12.03
2023-02-23T14:15:29.860Z,11.96
2023-02-23T14:18:39.167Z,11.91
2023-02-23T14:21:27.734Z,11.90
2023-02-23T14:24:03.229Z,11.84
2023-02-23T14:26:42.846Z,11.83
2023-02-23T14:29:45.244Z,11.88
2023-02-23T14:32:32.663Z,11.87
2023-02-23T14:35:00.803Z,11.88
2023-02-23T14:37:32.029Z,11.85
2023-02-23T14:40:23.277Z,11.79
2023-02-23T14:42:52.087Z,11.79
2023-02-23T14:45:47.663Z,11.89
2023-02-23T14:48:17.236Z,11.88
2023-02-23T14:50:44.048Z,11.86
2023-02-23T14:53:22.415Z,11.86
2023-02-23T14:55:49.951Z,11.79
2023-02-23T14:58:24.838Z,11.85
2023-02-23T15:00:52.235Z,11.76
2023-02-23T15:03:19.058Z,11.65
2023-02-23T15:05:57.714Z,11.64
2023-02-23T15:08:29.406Z,11.72
2023-02-23T15:11:12.807Z,11.65
2023-02-23T15:13:47.445Z,11.62
2023-02-23T15:16:24.564Z,11.60
2023-02-23T15:19:32.413Z,11.59
2023-02-23T15:22:00.792Z,11.59
2023-02-23T15:24:31.986Z,11.56
2023-02-23T15:26:59.092Z,11.59
2023-02-23T15:29:31.958Z,11.66
2023-02-23T15:32:15.107Z,11.67
2023-02-23T15:34:42.040Z,11.62
2023-02-23T15:37:40.759Z,11.63
2023-02-23T15:40:16.612Z,11.57
2023-02-23T15:42:50.301Z,11.57
2023-02-23T15:45:28.684Z,11.60
2023-02-23T15:47:56.846Z,11.63
2023-02-23T15:50:36.510Z,11.54
2023-02-23T15:53:13.812Z,11.54
2023-02-23T15:55:43.666Z,11.52
2023-02-23T15:58:24.371Z,11.46
2023-02-23T16:00:56.811Z,11.46
2023-02-23T16:03:36.317Z,11.50
2023-02-23T16:06:24.594Z,11.48
2023-02-23T16:08:59.557Z,11.48
2023-02-23T16:11:27.438Z,11.37
2023-02-23T16:13:54.418Z,11.31
2023-02-23T16:16:25.790Z,11.23
2023-02-23T16:19:01.979Z,11.16
2023-02-23T16:21:31.436Z,10.96
2023-02-23T16:24:02.000Z,10.80
2023-02-23T16:26:34.492Z,10.66
2023-02-23T16:29:02.483Z,10.60
2023-02-23T16:31:45.972Z,10.44
2023-02-23T16:34:26.158Z,10.46
2023-02-23T16:37:02.057Z,10.39
2023-02-23T16:39:30.796Z,10.32
2023-02-23T16:42:01.708Z,10.20
2023-02-23T16:44:41.313Z,10.17
2023-02-23T16:47:47.758Z,10.23
2023-02-23T16:50:20.298Z,10.09
2023-02-23T16:52:53.434Z,10.07
2023-02-23T16:55:26.078Z,10.06
2023-02-23T16:57:55.312Z,9.98
2023-02-23T17:00:25.607Z,10.06
2023-02-23T17:02:52.925Z,10.14
2023-02-23T17:05:23.797Z,10.23
2023-02-23T17:07:51.510Z,10.33
2023-02-23T17:10:27.028Z,10.20
2023-02-23T17:12:55.529Z,10.20
2023-02-23T17:15:23.779Z,10.20
2023-02-23T17:17:53.346Z,10.19
2023-02-23T17:20:21.627Z,10.19
2023-02-23T17:22:49.916Z,10.10
2023-02-23T17:25:17.630Z,10.07
2023-02-23T17:27:44.520Z,10.11
2023-02-23T17:30:12.035Z,10.13
2023-02-23T17:32:38.872Z,10.14
2023-02-23T17:35:06.090Z,10.10
2023-02-23T17:37:32.802Z,10.13
2023-02-23T17:39:59.396Z,10.16
2023-02-23T17:42:37.603Z,10.11
2023-02-23T17:45:06.595Z,10.08
2023-02-23T17:47:34.695Z,10.10
2023-02-23T17:50:02.091Z,9.96
2023-02-23T17:52:28.940Z,10.11
2023-02-23T17:54:55.801Z,10.09
2023-02-23T17:57:23.573Z,10.10
2023-02-23T17:59:50.769Z,10.09
2023-02-23T18:02:20.801Z,10.08
2023-02-23T18:04:51.610Z,10.10
2023-02-23T18:07:19.622Z,10.09
2023-02-23T18:09:50.207Z,10.11
2023-02-23T18:12:19.416Z,10.08
2023-02-23T18:14:46.902Z,10.01
2023-02-23T18:17:13.992Z,10.06
2023-02-23T18:19:40.603Z,10.16
2023-02-23T18:22:07.476Z,10.10
2023-02-23T18:24:34.426Z,10.08
2023-02-23T18:27:02.204Z,10.12
2023-02-23T18:29:30.474Z,10.11
2023-02-23T18:31:58.567Z,10.00
2023-02-23T18:34:27.513Z,9.93
2023-02-23T18:36:55.028Z,10.01
2023-02-23T18:39:21.927Z,9.98
2023-02-23T18:41:50.013Z,9.85
2023-02-23T18:44:18.082Z,9.87
2023-02-23T18:46:46.608Z,9.90
2023-02-23T18:49:15.514Z,9.94
2023-02-23T18:51:43.399Z,9.87
2023-02-23T18:54:11.556Z,9.90
2023-02-23T18:56:41.726Z,9.89
2023-02-23T18:59:08.295Z,9.81
2023-02-23T19:01:38.838Z,9.79
2023-02-23T19:04:07.209Z,9.76
2023-02-23T19:06:34.896Z,9.98
2023-02-23T19:09:04.311Z,9.87
2023-02-23T19:11:33.012Z,9.86
2023-02-23T19:14:03.278Z,9.95
2023-02-23T19:16:32.092Z,9.94
2023-02-23T19:18:59.531Z,9.94
2023-02-23T19:21:26.123Z,9.88
2023-02-23T19:23:54.091Z,9.74
2023-02-23T19:26:21.584Z,9.71
2023-02-23T19:28:51.839Z,9.71
2023-02-23T19:31:21.077Z,9.70
2023-02-23T19:33:49.557Z,9.68
2023-02-23T19:36:20.035Z,9.73
2023-02-23T19:38:47.516Z,9.63
2023-02-23T19:41:20.374Z,9.60
2023-02-23T19:43:48.281Z,9.65
2023-02-23T19:46:21.036Z,9.60
2023-02-23T19:48:53.545Z,9.60
2023-02-23T19:51:21.312Z,9.62
2023-02-23T19:53:48.115Z,9.52
2023-02-23T19:56:17.028Z,9.63
2023-02-23T19:58:46.704Z,9.57
2023-02-23T20:01:16.918Z,9.55
2023-02-23T20:03:45.024Z,9.54
2023-02-23T20:06:13.703Z,9.63
2023-02-23T20:08:45.475Z,9.68
2023-02-23T20:11:12.440Z,9.74
2023-02-23T20:13:39.302Z,9.63
2023-02-23T20:16:09.260Z,9.59
2023-02-23T20:18:38.657Z,9.58
2023-02-23T20:21:10.000Z,9.61
2023-02-23T20:23:37.057Z,9.63
2023-02-23T20:26:08.187Z,9.56
2023-02-23T20:28:34.823Z,9.34
2023-02-23T20:31:01.955Z,9.35
2023-02-23T20:33:29.625Z,9.39
2023-02-23T20:35:56.544Z,9.33
2023-02-23T20:38:23.426Z,9.28
2023-02-23T20:40:51.474Z,9.25
2023-02-23T20:43:18.294Z,9.22
2023-02-23T20:45:49.119Z,9.25
2023-02-23T20:48:15.717Z,9.20
2023-02-23T20:50:42.587Z,9.24
2023-02-23T20:53:09.250Z,9.23
2023-02-23T20:55:35.866Z,9.14
2023-02-23T20:58:02.590Z,9.08
2023-02-23T21:00:31.312Z,9.16
2023-02-23T21:03:00.062Z,9.08
2023-02-23T21:05:28.975Z,8.91
2023-02-23T21:08:01.207Z,8.90
2023-02-23T21:10:32.424Z,8.96
2023-02-23T21:12:59.667Z,9.19
2023-02-23T21:15:29.306Z,9.03
2023-02-23T21:17:57.270Z,8.91
2023-02-23T21:20:25.184Z,9.01
2023-02-23T21:22:51.922Z,8.95
2023-02-23T21:25:20.530Z,8.91
2023-02-23T21:27:48.213Z,8.99
2023-02-23T21:30:19.587Z,8.99
2023-02-23T21:32:47.516Z,9.00
2023-02-23T21:35:14.632Z,8.91
2023-02-23T21:37:41.586Z,8.95
2023-02-23T21:40:11.539Z,8.93
2023-02-23T21:42:42.405Z,8.89
2023-02-23T21:45:11.241Z,9.01
2023-02-23T21:47:39.640Z,8.93
2023-02-23T21:50:07.148Z,8.84
2023-02-23T21:52:33.880Z,8.84
2023-02-23T21:55:03.906Z,8.81
2023-02-23T21:57:33.514Z,8.75
2023-02-23T22:00:00.142Z,8.78
2023-02-23T22:02:30.720Z,8.84
2023-02-23T22:04:58.424Z,8.85
2023-02-23T22:07:25.111Z,8.82
2023-02-23T22:09:51.762Z,8.94
2023-02-23T22:12:18.404Z,8.96
2023-02-23T22:14:44.942Z,8.96
2023-02-23T22:17:11.572Z,8.85
2023-02-23T22:19:38.615Z,8.74
2023-02-23T22:22:05.224Z,8.78
2023-02-23T22:24:32.054Z,8.79
2023-02-23T22:27:01.306Z,8.67
2023-02-23T22:29:28.010Z,8.74
2023-02-23T22:31:54.789Z,8.75
2023-02-23T22:34:22.213Z,8.75
2023-02-23T22:36:48.890Z,8.77
2023-02-23T22:39:16.414Z,8.65
2023-02-23T22:41:43.089Z,8.62
2023-02-23T22:44:16.868Z,8.57
2023-02-23T22:46:46.582Z,8.58
2023-02-23T22:49:15.965Z,8.44
2023-02-23T22:51:43.944Z,8.52
2023-02-23T22:54:11.690Z,8.57
2023-02-23T22:56:38.401Z,8.69
2023-02-23T22:59:06.546Z,8.77
2023-02-23T23:01:33.944Z,8.68
2023-02-23T23:04:00.580Z,8.65
2023-02-23T23:06:27.216Z,8.55
2023-02-23T23:08:56.573Z,8.61
2023-02-23T23:11:26.252Z,8.59
2023-02-23T23:13:57.757Z,8.46
2023-02-23T23:16:31.934Z,8.51
2023-02-23T23:19:04.589Z,8.60
2023-02-23T23:21:32.994Z,8.49
2023-02-23T23:24:01.513Z,8.53
2023-02-23T23:26:29.154Z,8.60
2023-02-23T23:28:58.088Z,8.59
2023-02-23T23:31:28.424Z,8.44
2023-02-23T23:33:58.146Z,8.41
2023-02-23T23:36:26.452Z,8.46
2023-02-23T23:38:56.645Z,8.50
2023-02-23T23:41:25.281Z,8.50
2023-02-23T23:43:59.422Z,8.28
2023-02-23T23:46:35.621Z,8.19
2023-02-23T23:49:08.257Z,8.20
2023-02-23T23:51:46.095Z,8.28
2023-02-23T23:54:15.070Z,8.22
2023-02-23T23:56:43.725Z,8.28
2023-02-23T23:59:13.340Z,8.25
